Time;durP1;ratioP1;P1;durP2;ratioP2;P2;SDS_P1;SDS_P2;PMS_P1;PMS_P2;Temp;Humidity;BMP_temperature;BMP_pressure;BME280_temperature;BME280_humidity;BME280_pressure;Samples;Min_cycle;Max_cycle;Signal;HPM_P1;HPM_P2
2022/12/01 00:01:24;;;;;;;39.78;26.42;;;;;;;3.00;69.47;99733.75;5028553;28;20041;-72
2022/12/01 00:03:51;;;;;;;42.75;25.92;;;;;;;3.51;69.71;99794.75;5028334;28;20038;-71
2022/12/01 00:06:19;;;;;;;44.58;27.45;;;;;;;2.97;69.79;99694.53;5028945;28;20297;-72
2022/12/01 00:11:30;;;;;;;44.38;26.40;;;;;;;3.48;69.85;99792.19;5028224;28;20096;-72
2022/12/01 00:13:57;;;;;;;41.80;26.17;;;;;;;3.49;69.99;99787.81;5028368;28;20107;-72
2022/12/01 00:16:23;;;;;;;40.70;25.83;;;;;;;3.47;69.92;99782.59;5027614;28;20037;-72
2022/12/01 00:18:50;;;;;;;43.00;26.73;;;;;;;3.47;69.94;99781.75;5028391;28;20046;-72
2022/12/01 00:21:19;;;;;;;42.97;25.58;;;;;;;3.45;69.96;99787.00;5028450;28;20050;-72
2022/12/01 00:23:47;;;;;;;44.63;26.35;;;;;;;3.45;69.96;99784.38;5027879;28;20057;-72
2022/12/01 00:26:13;;;;;;;45.58;29.35;;;;;;;3.43;69.93;99783.56;5028086;28;20052;-73
2022/12/01 00:28:42;;;;;;;42.85;26.80;;;;;;;3.42;70.02;99771.34;5027052;28;20206;-72
2022/12/01 00:31:09;;;;;;;44.03;26.65;;;;;;;3.42;70.13;99784.44;5028071;28;20332;-72
2022/12/01 00:33:36;;;;;;;43.25;25.13;;;;;;;3.41;70.09;99787.97;5026894;28;20052;-73
2022/12/01 00:36:04;;;;;;;41.63;26.15;;;;;;;3.39;70.08;99784.50;5027891;28;20061;-73
2022/12/01 00:38:31;;;;;;;44.50;27.45;;;;;;;3.38;69.99;99784.53;5027524;28;20042;-73
2022/12/01 00:40:58;;;;;;;37.25;24.95;;;;;;;3.35;70.05;99779.34;5026510;28;20072;-73
2022/12/01 00:43:25;;;;;;;42.67;25.00;;;;;;;2.84;70.03;99701.75;5027991;28;20053;-73
2022/12/01 00:45:55;;;;;;;43.75;26.35;;;;;;;3.13;70.09;99744.84;5027663;28;20048;-73
2022/12/01 00:48:22;;;;;;;44.33;25.88;;;;;;;2.36;70.07;99616.28;5025689;28;20038;-73
2022/12/01 00:50:52;;;;;;;41.53;26.90;;;;;;;3.31;70.16;99782.94;5026625;28;20201;-73
2022/12/01 00:53:18;;;;;;;42.42;26.55;;;;;;;3.30;70.04;99782.06;5027337;28;20085;-73
2022/12/01 00:55:45;;;;;;;40.67;25.27;;;;;;;3.27;70.05;99778.63;5026619;28;20053;-73
2022/12/01 00:58:12;;;;;;;49.35;31.45;;;;;;;3.25;70.18;99788.28;5026453;28;20104;-73
2022/12/01 01:00:39;;;;;;;40.78;26.10;;;;;;;3.23;70.18;99783.06;5026424;28;20104;-73
2022/12/01 01:03:07;;;;;;;42.65;25.67;;;;;;;2.07;69.89;99580.19;5027653;28;20194;-73
2022/12/01 01:05:36;;;;;;;44.20;26.58;;;;;;;3.22;70.24;99778.72;5027540;28;20109;-73
2022/12/01 01:08:06;;;;;;;43.17;27.10;;;;;;;3.20;70.01;99776.13;5027322;28;20096;-73
2022/12/01 01:10:33;;;;;;;43.38;26.42;;;;;;;3.21;70.05;99779.63;5027433;28;20041;-73
2022/12/01 01:13:00;;;;;;;42.72;27.40;;;;;;;-1.99;69.63;99312.84;5027518;28;20352;-73
2022/12/01 01:15:26;;;;;;;43.25;27.00;;;;;;;3.21;70.25;99777.00;5027007;28;20052;-73
2022/12/01 01:17:53;;;;;;;44.03;26.48;;;;;;;3.19;70.06;99777.03;5026298;28;20049;-73
2022/12/01 01:20:21;;;;;;;40.75;26.15;;;;;;;3.17;70.19;99770.94;5027040;28;20046;-73
2022/12/01 01:22:48;;;;;;;44.13;26.63;;;;;;;3.17;70.08;99781.44;5027362;28;20048;-73
2022/12/01 01:25:15;;;;;;;49.42;28.05;;;;;;;3.16;70.04;99771.84;5027119;28;20167;-73
2022/12/01 01:27:42;;;;;;;46.70;27.05;;;;;;;3.16;70.02;99773.59;5026829;28;20053;-73
2022/12/01 01:30:10;;;;;;;44.22;26.50;;;;;;;3.13;69.99;99777.13;5027328;28;20047;-73
2022/12/01 01:32:36;;;;;;;42.10;27.98;;;;;;;2.72;70.14;99716.81;5027388;28;20038;-73
2022/12/01 01:35:03;;;;;;;45.10;25.48;;;;;;;3.07;70.31;99785.09;5027145;28;20056;-73
2022/12/01 01:37:31;;;;;;;44.13;27.67;;;;;;;3.08;70.12;99784.22;5025904;28;20337;-74
2022/12/01 01:39:58;;;;;;;42.45;27.17;;;;;;;3.09;70.25;99774.59;5025662;28;20038;-73
2022/12/01 01:42:25;;;;;;;40.90;27.52;;;;;;;2.48;70.16;99671.84;5026681;28;20182;-73
2022/12/01 01:44:53;;;;;;;40.22;26.00;;;;;;;3.03;70.30;99772.97;5027073;28;20052;-73
2022/12/01 01:47:24;;;;;;;38.95;25.08;;;;;;;3.03;70.48;99764.25;5026795;28;20108;-73
2022/12/01 01:49:52;;;;;;;40.95;24.25;;;;;;;3.03;70.56;99772.09;5027180;28;20171;-73
2022/12/01 01:52:19;;;;;;;39.13;26.73;;;;;;;3.03;70.49;99770.34;5025463;28;20214;-73
2022/12/01 01:54:50;;;;;;;43.63;27.83;;;;;;;3.02;70.65;99773.00;5026511;28;20054;-73
2022/12/01 01:57:24;;;;;;;44.88;28.20;;;;;;;3.00;70.56;99764.28;5026625;28;20042;-73
2022/12/01 01:59:55;;;;;;;42.45;26.67;;;;;;;3.00;70.68;99778.25;5026386;28;20061;-73
2022/12/01 02:02:22;;;;;;;44.08;27.15;;;;;;;2.96;70.66;99765.25;5026332;28;20041;-73
2022/12/01 02:04:53;;;;;;;42.33;27.05;;;;;;;2.41;70.82;99672.00;5026483;28;20100;-73
2022/12/01 02:07:20;;;;;;;42.72;26.40;;;;;;;2.91;70.82;99751.38;5026245;28;20054;-73
2022/12/01 02:09:48;;;;;;;47.38;29.55;;;;;;;2.99;70.68;99771.28;5026758;28;20042;-73
2022/12/01 02:12:30;;;;;;;42.00;25.83;;;;;;;2.98;70.84;99773.94;5026367;28;20037;-73
2022/12/01 02:15:13;;;;;;;41.58;28.15;;;;;;;2.94;70.67;99774.88;5026222;28;20310;-74
2022/12/01 02:17:47;;;;;;;42.92;24.02;;;;;;;2.94;70.76;99782.72;5026330;28;20294;-74
2022/12/01 02:20:42;;;;;;;42.30;24.90;;;;;;;2.92;70.83;99776.66;5026535;28;20053;-74
2022/12/01 02:23:32;;;;;;;41.53;24.17;;;;;;;2.88;70.92;99786.31;5026274;28;20072;-74
2022/12/01 02:26:20;;;;;;;42.03;25.92;;;;;;;2.89;70.82;99788.06;5025058;28;20053;-73
2022/12/01 02:29:02;;;;;;;43.30;26.35;;;;;;;2.90;70.93;99787.16;5026295;28;20197;-73
2022/12/01 02:31:38;;;;;;;42.47;26.35;;;;;;;2.91;70.96;99785.41;5025842;28;20049;-73
2022/12/01 02:34:11;;;;;;;41.05;26.55;;;;;;;2.88;71.07;99783.72;5025976;28;20325;-73
2022/12/01 02:36:45;;;;;;;43.58;27.48;;;;;;;2.90;71.00;99787.16;5026169;28;20053;-73
2022/12/01 02:39:21;;;;;;;43.37;26.73;;;;;;;2.87;70.96;99774.97;5026412;28;20041;-73
2022/12/01 02:41:50;;;;;;;43.45;25.67;;;;;;;2.15;70.96;99661.97;5025971;28;20044;-73
2022/12/01 02:44:23;;;;;;;45.17;27.38;;;;;;;2.84;70.97;99777.66;5008963;28;20256;-73
2022/12/01 02:46:56;;;;;;;41.67;26.15;;;;;;;2.85;70.90;99786.38;5026019;28;20053;-73
2022/12/01 02:49:28;;;;;;;44.90;28.10;;;;;;;2.77;70.95;99765.56;5025036;28;20046;-73
2022/12/01 02:51:57;;;;;;;39.22;25.10;;;;;;;2.81;70.96;99782.94;5024538;28;20104;-74
2022/12/01 02:54:25;;;;;;;39.03;25.77;;;;;;;2.83;71.00;99782.91;5024817;28;20049;-72
2022/12/01 02:56:53;;;;;;;39.58;24.90;;;;;;;2.84;71.09;99780.28;5025704;28;20069;-72
2022/12/01 02:59:19;;;;;;;42.25;27.05;;;;;;;2.85;71.18;99781.13;5026129;28;20045;-73
2022/12/01 03:02:01;;;;;;;41.95;25.60;;;;;;;0.85;70.86;99441.91;5025187;28;20038;-73
2022/12/01 03:04:51;;;;;;;44.58;25.83;;;;;;;0.28;70.69;99460.06;5025764;28;20057;-73
2022/12/01 03:07:34;;;;;;;40.25;24.88;;;;;;;2.42;71.04;99708.59;5025686;28;20046;-73
2022/12/01 03:10:12;;;;;;;39.25;25.55;;;;;;;2.76;70.82;99770.81;5026175;28;20201;-73
2022/12/01 03:12:50;;;;;;;41.75;25.05;;;;;;;2.75;71.05;99761.25;5028585;28;20045;-73
2022/12/01 03:15:28;;;;;;;39.40;24.63;;;;;;;2.75;70.94;99769.97;5029311;28;20268;-73
2022/12/01 03:18:05;;;;;;;44.25;26.75;;;;;;;2.76;70.89;99757.75;5028472;28;20306;-73
2022/12/01 03:20:35;;;;;;;41.15;26.50;;;;;;;2.75;70.92;99764.72;5029329;28;20302;-73
2022/12/01 03:23:09;;;;;;;39.42;24.98;;;;;;;2.73;70.73;99774.34;5029083;28;20065;-73
2022/12/01 03:25:39;;;;;;;43.55;26.67;;;;;;;2.48;70.81;99731.16;5029071;28;20045;-73
2022/12/01 03:28:08;;;;;;;44.63;27.52;;;;;;;2.69;70.88;99770.06;5028712;28;20092;-73
2022/12/01 03:30:37;;;;;;;44.60;26.98;;;;;;;2.70;70.76;99761.31;5028593;28;20042;-73
2022/12/01 03:33:09;;;;;;;41.50;26.42;;;;;;;2.12;71.15;99670.72;5029083;28;20057;-73
2022/12/01 03:35:42;;;;;;;42.38;26.92;;;;;;;2.66;70.92;99757.03;5028040;28;20209;-73
2022/12/01 03:38:15;;;;;;;41.13;25.35;;;;;;;2.10;70.78;99687.31;5028901;28;20054;-73
2022/12/01 03:40:44;;;;;;;39.88;23.45;;;;;;;2.65;70.98;99764.91;5029095;28;20050;-73
2022/12/01 03:43:15;;;;;;;40.95;24.83;;;;;;;2.39;70.96;99719.09;5028918;28;20050;-73
2022/12/01 03:45:53;;;;;;;40.58;25.13;;;;;;;2.59;70.57;99763.25;5028116;28;20057;-73
2022/12/01 03:48:23;;;;;;;39.00;24.55;;;;;;;2.02;70.54;99692.66;5028595;28;20060;-73
2022/12/01 03:50:58;;;;;;;43.13;27.45;;;;;;;2.54;70.53;99765.94;5028002;28;20122;-73
2022/12/01 03:53:32;;;;;;;46.38;26.75;;;;;;;1.98;70.32;99724.09;5028297;28;20054;-73
2022/12/01 03:56:03;;;;;;;42.13;25.97;;;;;;;2.52;70.37;99764.25;5028744;28;20084;-73
2022/12/01 03:58:33;;;;;;;43.83;26.80;;;;;;;2.54;70.07;99771.19;5027599;28;20125;-73
2022/12/01 04:01:02;;;;;;;44.65;27.55;;;;;;;2.55;70.33;99769.44;5028854;28;20041;-73
2022/12/01 04:03:31;;;;;;;44.78;27.38;;;;;;;2.54;70.00;99767.69;5028116;28;20041;-73
2022/12/01 04:05:58;;;;;;;46.83;28.17;;;;;;;2.36;70.09;99741.84;5028814;28;20042;-72
2022/12/01 04:08:24;;;;;;;44.42;27.48;;;;;;;2.52;70.05;99766.84;5027340;28;20210;-73
2022/12/01 04:10:51;;;;;;;41.88;28.23;;;;;;;2.52;70.08;99765.09;5028111;28;20296;-73
2022/12/01 04:13:21;;;;;;;41.63;26.27;;;;;;;2.52;70.07;99772.97;5027512;28;20034;-72
2022/12/01 04:15:49;;;;;;;43.80;26.27;;;;;;;2.52;69.93;99762.50;5028073;28;20056;-73
2022/12/01 04:18:16;;;;;;;47.45;27.33;;;;;;;2.52;70.03;99769.47;5011286;28;20077;-73
2022/12/01 04:20:45;;;;;;;42.63;26.08;;;;;;;2.49;70.02;99764.28;5028032;28;20182;-73
2022/12/01 04:23:58;;;;;;;43.38;27.65;;;;;;;2.42;69.90;99752.19;5026619;28;20048;-73
2022/12/01 04:26:00;;;;;;;41.03;24.05;;;;;;;2.46;69.85;99772.19;5027765;28;20329;-73
2022/12/01 04:28:27;;;;;;;43.25;27.17;;;;;;;2.43;70.00;99767.00;5027848;28;20052;-73
2022/12/01 04:30:53;;;;;;;40.88;25.90;;;;;;;2.42;69.95;99768.75;5028042;28;20053;-73
2022/12/01 04:33:20;;;;;;;43.17;26.90;;;;;;;2.42;70.14;99771.38;5026768;28;20340;-73
2022/12/01 04:35:57;;;;;;;42.08;26.48;;;;;;;2.41;69.69;99777.50;5028273;28;20041;-73
2022/12/01 04:38:24;;;;;;;46.17;27.48;;;;;;;2.40;69.90;99764.44;5027767;28;20108;-73
2022/12/01 04:40:51;;;;;;;45.20;27.08;;;;;;;2.39;69.98;99771.41;5027047;28;20037;-73
2022/12/01 04:43:17;;;;;;;39.47;24.73;;;;;;;0.68;69.60;99480.44;5027671;28;20099;-73
2022/12/01 04:45:44;;;;;;;40.42;24.55;;;;;;;2.38;69.66;99766.22;5027452;28;20133;-73
2022/12/01 04:48:11;;;;;;;42.83;26.77;;;;;;;2.37;69.59;99765.34;5027384;28;20109;-73
2022/12/01 04:50:38;;;;;;;47.15;27.27;;;;;;;2.38;69.68;99769.69;5027602;28;20046;-73
2022/12/01 04:53:06;;;;;;;42.85;25.98;;;;;;;2.38;69.53;99768.81;5027287;28;20054;-73
2022/12/01 04:55:37;;;;;;;44.83;25.52;;;;;;;2.38;69.64;99779.28;5027214;28;20050;-72
2022/12/01 04:58:04;;;;;;;42.10;25.30;;;;;;;2.36;69.55;99771.47;5027747;28;20050;-73
2022/12/01 05:00:31;;;;;;;39.00;23.85;;;;;;;2.13;69.50;99732.59;5026357;28;20044;-73
2022/12/01 05:02:58;;;;;;;43.30;26.08;;;;;;;0.42;68.89;99699.78;5027363;28;20237;-73
2022/12/01 05:05:25;;;;;;;47.47;28.55;;;;;;;2.33;69.40;99783.72;5027643;28;20050;-73
2022/12/01 05:07:52;;;;;;;43.80;27.92;;;;;;;2.33;69.42;99783.72;5027612;28;20042;-73
2022/12/01 05:10:21;;;;;;;44.05;26.27;;;;;;;2.31;69.36;99775.03;5027813;28;20201;-73
2022/12/01 05:12:48;;;;;;;41.92;25.23;;;;;;;1.62;69.51;99668.00;5026091;28;20251;-73
2022/12/01 05:15:15;;;;;;;43.03;25.88;;;;;;;2.32;69.50;99787.22;5026928;28;20109;-73
2022/12/01 05:17:42;;;;;;;46.50;27.40;;;;;;;2.33;69.36;99788.97;5027154;28;20153;-73
2022/12/01 05:23:06;;;;;;;42.15;27.38;;;;;;;2.29;69.30;99785.53;5026682;28;20321;-72
2022/12/01 05:25:36;;;;;;;43.75;27.63;;;;;;;2.28;69.28;99786.41;5025874;28;20048;-72
2022/12/01 05:28:02;;;;;;;45.75;27.75;;;;;;;2.27;69.32;99783.81;5026902;28;20062;-72
2022/12/01 05:30:29;;;;;;;43.95;26.38;;;;;;;2.28;69.37;99788.16;5026620;28;20042;-72
2022/12/01 05:32:56;;;;;;;41.33;25.33;;;;;;;2.27;69.20;99797.75;5027101;28;20072;-73
2022/12/01 05:35:23;;;;;;;48.72;27.38;;;;;;;2.28;69.14;99796.88;5026086;28;20038;-73
2022/12/01 05:37:49;;;;;;;47.55;28.23;;;;;;;2.29;69.35;99797.75;5026806;28;20053;-73
2022/12/01 05:40:16;;;;;;;47.72;28.90;;;;;;;2.11;69.20;99763.13;5026177;28;20100;-73
2022/12/01 05:42:44;;;;;;;51.83;31.05;;;;;;;2.31;69.23;99793.34;5025435;28;20045;-73
2022/12/01 05:45:11;;;;;;;44.65;26.95;;;;;;;2.30;69.25;99805.56;5026580;28;20042;-72
2022/12/01 05:47:38;;;;;;;42.17;27.65;;;;;;;2.27;69.04;99804.75;5026731;28;20060;-73
2022/12/01 05:50:06;;;;;;;48.00;28.25;;;;;;;2.10;68.95;99784.94;5026821;28;20045;-73
2022/12/01 05:52:34;;;;;;;46.08;28.35;;;;;;;2.21;69.02;99814.41;5025241;28;20053;-73
2022/12/01 05:55:00;;;;;;;44.70;27.10;;;;;;;1.75;69.18;99742.72;5026254;28;20209;-72
2022/12/01 05:57:27;;;;;;;44.42;28.17;;;;;;;2.17;69.02;99819.69;5026154;28;20042;-73
2022/12/01 05:59:55;;;;;;;42.40;26.13;;;;;;;2.18;69.25;99811.84;5026188;28;20046;-73
2022/12/01 06:02:22;;;;;;;44.60;27.75;;;;;;;2.19;69.15;99797.88;5026129;28;20289;-73
2022/12/01 06:04:49;;;;;;;43.33;25.13;;;;;;;2.22;69.10;99807.44;5026005;28;20041;-73
2022/12/01 06:07:15;;;;;;;43.33;26.25;;;;;;;2.22;69.06;99810.03;5026280;28;20046;-73
2022/12/01 06:09:44;;;;;;;44.92;26.38;;;;;;;2.26;69.12;99816.97;5025091;28;20045;-73
2022/12/01 06:12:10;;;;;;;44.38;27.85;;;;;;;2.28;69.05;99809.94;5025087;28;20049;-73
2022/12/01 06:14:37;;;;;;;44.72;27.27;;;;;;;2.13;69.03;99784.88;5026422;28;20046;-72
2022/12/01 06:17:05;;;;;;;45.15;28.20;;;;;;;2.31;69.05;99809.91;5025034;28;20046;-73
2022/12/01 06:19:32;;;;;;;43.38;26.70;;;;;;;1.56;68.90;99711.59;5026159;28;20041;-73
2022/12/01 06:21:59;;;;;;;42.33;25.30;;;;;;;2.33;69.16;99817.72;5026263;28;20069;-73
2022/12/01 06:24:25;;;;;;;43.03;26.13;;;;;;;2.32;69.15;99811.63;5026266;28;20068;-73
2022/12/01 06:26:52;;;;;;;48.28;27.67;;;;;;;2.11;69.35;99784.03;5009477;28;20096;-72
2022/12/01 06:29:19;;;;;;;44.33;27.90;;;;;;;2.31;69.50;99809.91;5025752;28;20049;-73
2022/12/01 06:31:45;;;;;;;44.78;26.27;;;;;;;2.29;69.37;99806.44;5025074;28;20046;-73
2022/12/01 06:34:13;;;;;;;45.15;27.13;;;;;;;2.28;69.71;99814.31;5026246;28;20042;-73
2022/12/01 06:36:40;;;;;;;46.38;28.55;;;;;;;2.28;69.71;99814.31;5025695;28;20042;-73
2022/12/01 06:39:08;;;;;;;47.90;28.92;;;;;;;2.26;69.87;99810.88;5025872;28;20053;-73
2022/12/01 06:41:35;;;;;;;48.78;27.33;;;;;;;2.24;69.85;99810.88;5025832;28;20201;-73
2022/12/01 06:44:02;;;;;;;48.63;27.30;;;;;;;2.26;69.78;99810.88;5025350;28;20052;-73
2022/12/01 06:46:29;;;;;;;48.65;28.20;;;;;;;2.03;69.84;99778.06;5026108;28;20045;-73
2022/12/01 06:48:56;;;;;;;44.45;26.90;;;;;;;2.26;69.88;99816.97;5029684;28;20056;-73
2022/12/01 06:51:24;;;;;;;46.88;26.77;;;;;;;2.26;69.77;99822.19;5029254;28;20096;-73
2022/12/01 06:53:53;;;;;;;44.92;27.20;;;;;;;2.27;69.92;99812.59;5030103;28;20049;-73
2022/12/01 06:56:20;;;;;;;44.90;28.00;;;;;;;2.28;69.82;99811.69;5029501;28;20179;-73
2022/12/01 06:58:47;;;;;;;48.47;26.80;;;;;;;2.30;69.76;99817.78;5030123;28;20038;-73
2022/12/01 07:01:13;;;;;;;44.78;27.15;;;;;;;2.33;69.68;99817.72;5028625;28;20046;-73
2022/12/01 07:03:41;;;;;;;44.10;27.55;;;;;;;2.34;69.80;99809.88;5029294;28;20096;-73
2022/12/01 07:06:09;;;;;;;47.45;29.80;;;;;;;2.36;69.78;99804.59;5029265;28;20096;-73
2022/12/01 07:08:37;;;;;;;41.65;26.27;;;;;;;2.34;69.86;99811.63;5028440;28;20045;-73
2022/12/01 07:11:06;;;;;;;45.35;28.30;;;;;;;2.35;69.51;99831.66;5029669;28;20042;-72
2022/12/01 07:13:33;;;;;;;45.97;27.48;;;;;;;2.34;69.49;99814.22;5029473;28;20241;-73
2022/12/01 07:16:00;;;;;;;52.30;28.55;;;;;;;2.33;69.38;99841.28;5029618;28;20053;-73
2022/12/01 07:18:27;;;;;;;47.22;27.85;;;;;;;2.31;69.31;99806.44;5029598;28;20088;-73
2022/12/01 07:20:54;;;;;;;46.45;28.60;;;;;;;2.34;69.31;99827.31;5028202;28;20041;-73
2022/12/01 07:23:23;;;;;;;46.63;27.58;;;;;;;2.35;69.24;99814.22;5027987;28;20050;-72
2022/12/01 07:25:58;;;;;;;44.10;27.55;;;;;;;2.36;68.86;99808.09;5027950;28;20046;-73
2022/12/01 07:28:24;;;;;;;;;;;;;;;2.31;68.46;99822.13;5029965;28;20201;-72
2022/12/01 07:30:51;;;;;;;49.10;28.35;;;;;;;2.32;69.00;99822.09;5029338;28;19960;-73
2022/12/01 07:33:18;;;;;;;47.28;29.40;;;;;;;2.34;69.00;99824.69;5028721;28;20092;-72
2022/12/01 07:35:45;;;;;;;46.17;28.23;;;;;;;2.33;68.84;99836.91;5028196;28;20132;-73
2022/12/01 07:38:11;;;;;;;45.25;27.40;;;;;;;2.33;68.64;99830.81;5028972;28;20300;-73
2022/12/01 07:40:38;;;;;;;48.92;28.23;;;;;;;2.33;68.58;99833.44;5027858;28;20042;-72
2022/12/01 07:43:06;;;;;;;48.83;27.95;;;;;;;2.33;68.36;99841.28;5029103;28;20049;-72
2022/12/01 07:45:34;;;;;;;51.78;30.42;;;;;;;2.33;68.54;99843.88;5028303;28;20092;-72
2022/12/01 07:48:01;;;;;;;50.75;27.92;;;;;;;2.34;68.30;99856.09;5028152;28;20046;-72
2022/12/01 07:50:27;;;;;;;45.33;27.88;;;;;;;2.32;68.38;99852.63;5028463;28;20042;-73
2022/12/01 07:52:54;;;;;;;51.78;29.65;;;;;;;2.28;68.28;99864.00;5028124;28;20049;-72
2022/12/01 07:55:21;;;;;;;47.25;30.50;;;;;;;2.27;68.26;99863.16;5028177;28;20046;-72
2022/12/01 07:57:48;;;;;;;42.15;26.85;;;;;;;2.27;68.21;99871.00;5027128;28;20048;-73
2022/12/01 08:00:17;;;;;;;45.53;26.40;;;;;;;2.26;68.32;99866.66;5028349;28;20045;-72
2022/12/01 08:02:44;;;;;;;46.45;27.55;;;;;;;2.28;68.39;99870.09;5027348;28;20042;-73
2022/12/01 08:05:10;;;;;;;44.25;26.67;;;;;;;2.31;68.29;99871.81;5027441;28;20042;-73
2022/12/01 08:07:37;;;;;;;46.40;28.10;;;;;;;2.31;68.11;99867.44;5027426;28;20045;-73
2022/12/01 08:10:04;;;;;;;43.88;26.90;;;;;;;2.33;68.30;99859.59;5028386;28;20046;-73
2022/12/01 08:12:31;;;;;;;43.42;26.77;;;;;;;2.34;68.14;99864.78;5028326;28;20053;-73
2022/12/01 08:14:58;;;;;;;46.13;28.65;;;;;;;2.36;68.29;99870.88;5028510;28;20049;-72
2022/12/01 08:17:26;;;;;;;44.17;26.63;;;;;;;2.30;68.29;99857.00;5028043;28;20053;-73
2022/12/01 08:19:53;;;;;;;46.15;29.30;;;;;;;2.25;68.21;99848.34;5026959;28;20046;-73
2022/12/01 08:22:19;;;;;;;43.95;29.00;;;;;;;2.44;68.23;99879.47;5027841;28;20371;-73
2022/12/01 08:24:46;;;;;;;43.40;27.27;;;;;;;2.49;67.95;99879.41;5026980;28;20093;-73
2022/12/01 08:27:13;;;;;;;43.95;26.08;;;;;;;2.53;67.92;99884.59;5028135;28;20128;-73
2022/12/01 08:29:39;;;;;;;47.88;27.75;;;;;;;2.54;67.81;99888.94;5027893;28;20053;-73
2022/12/01 08:32:07;;;;;;;50.45;29.05;;;;;;;2.57;67.75;99885.41;5026843;28;20048;-73
2022/12/01 08:34:37;;;;;;;48.70;29.35;;;;;;;2.59;67.72;99881.00;5027197;28;20045;-72
2022/12/01 08:37:04;;;;;;;43.53;26.58;;;;;;;2.69;67.77;99880.00;5028124;28;20109;-73
2022/12/01 08:39:30;;;;;;;44.38;26.38;;;;;;;2.77;67.52;99872.03;5027789;28;20230;-73
2022/12/01 08:41:57;;;;;;;47.00;28.83;;;;;;;2.83;67.50;99878.03;5028052;28;20064;-72
2022/12/01 08:44:24;;;;;;;44.53;26.90;;;;;;;2.92;67.14;99877.00;5027645;28;20100;-72
2022/12/01 08:46:51;;;;;;;49.85;30.30;;;;;;;2.79;67.14;99837.06;5027611;28;20092;-72
2022/12/01 08:49:17;;;;;;;43.90;27.27;;;;;;;3.07;66.76;99873.28;5027888;28;20050;-72
2022/12/01 08:51:46;;;;;;;45.83;28.95;;;;;;;3.17;66.66;99877.47;5027314;28;20195;-72
2022/12/01 08:54:12;;;;;;;46.75;26.83;;;;;;;3.31;66.54;99880.72;5027230;28;20041;-72
2022/12/01 08:56:41;;;;;;;49.92;29.85;;;;;;;3.42;66.28;99876.16;5027190;28;20041;-72
2022/12/01 08:59:09;;;;;;;49.63;28.90;;;;;;;3.55;65.74;99887.28;5026132;28;20234;-72
2022/12/01 09:01:50;;;;;;;47.65;28.60;;;;;;;3.64;65.62;99884.50;5027273;28;20068;-72
2022/12/01 09:04:18;;;;;;;48.40;28.65;;;;;;;3.69;64.93;99872.16;5026536;28;20060;-73
2022/12/01 09:06:48;;;;;;;48.45;30.13;;;;;;;3.75;64.97;99868.56;5009934;28;20038;-73
2022/12/01 09:09:17;;;;;;;47.42;29.98;;;;;;;3.82;65.04;99867.56;5026130;28;20050;-73
2022/12/01 09:11:45;;;;;;;48.33;28.70;;;;;;;3.92;65.13;99870.84;5026999;28;20054;-73
2022/12/01 09:14:13;;;;;;;44.95;30.02;;;;;;;3.99;65.15;99865.44;5027174;28;20042;-72
2022/12/01 09:16:40;;;;;;;51.42;31.42;;;;;;;3.48;64.69;99773.00;5027109;28;20057;-72
2022/12/01 09:19:07;;;;;;;45.00;27.58;;;;;;;4.06;64.96;99859.19;5026916;28;20057;-73
2022/12/01 09:21:36;;;;;;;48.13;28.77;;;;;;;4.10;64.69;99866.09;5027155;28;20050;-73
2022/12/01 09:24:06;;;;;;;52.90;30.95;;;;;;;4.10;64.52;99863.47;5026626;28;20045;-73
2022/12/01 09:26:33;;;;;;;50.15;31.70;;;;;;;4.09;64.40;99867.00;5026126;28;20046;-73
2022/12/01 09:29:03;;;;;;;45.22;30.40;;;;;;;4.09;64.50;99861.75;5026715;28;20046;-73
2022/12/01 09:31:30;;;;;;;45.97;28.85;;;;;;;3.69;64.67;99790.03;5026929;28;20100;-72
2022/12/01 09:33:58;;;;;;;44.40;29.40;;;;;;;4.09;64.68;99845.16;5026704;28;20100;-72
2022/12/01 09:36:25;;;;;;;46.17;27.88;;;;;;;4.12;64.67;99840.69;5026755;28;20045;-73
2022/12/01 09:38:52;;;;;;;50.10;28.25;;;;;;;4.08;64.65;99832.91;5027081;28;20189;-73
2022/12/01 09:41:24;;;;;;;49.70;30.85;;;;;;;4.09;64.62;99847.78;5026880;28;20049;-73
2022/12/01 09:43:56;;;;;;;47.00;31.73;;;;;;;4.11;64.47;99843.34;5026364;28;20226;-73
2022/12/01 09:46:28;;;;;;;46.42;29.33;;;;;;;4.13;64.59;99831.06;5026207;28;20045;-73
2022/12/01 09:48:56;;;;;;;43.50;26.95;;;;;;;4.16;64.73;99841.50;5026810;28;20101;-73
2022/12/01 09:51:28;;;;;;;49.05;30.63;;;;;;;4.16;64.13;99839.72;5026457;28;20063;-73
2022/12/01 09:53:58;;;;;;;46.20;29.65;;;;;;;4.20;64.61;99832.69;5025419;28;20038;-73
2022/12/01 09:56:29;;;;;;;50.08;29.67;;;;;;;4.00;64.11;99796.38;5025326;28;20214;-73
2022/12/01 09:58:58;;;;;;;48.70;30.55;;;;;;;3.71;64.23;99751.56;5026734;28;20286;-73
2022/12/01 10:01:32;;;;;;;49.00;30.02;;;;;;;4.00;63.28;99785.88;5026333;28;20089;-73
2022/12/01 10:04:06;;;;;;;47.45;29.60;;;;;;;4.14;63.97;99817.91;5026288;28;20038;-73
2022/12/01 10:06:39;;;;;;;43.03;28.50;;;;;;;2.80;64.14;99579.66;5026332;28;20046;-73
2022/12/01 10:09:16;;;;;;;48.88;31.65;;;;;;;4.21;63.86;99812.56;5026029;28;20057;-73
2022/12/01 10:11:46;;;;;;;43.47;28.42;;;;;;;4.05;64.02;99789.25;5025664;28;20092;-72
2022/12/01 10:14:16;;;;;;;41.92;28.27;;;;;;;4.23;64.20;99816.88;5026164;28;20050;-72
2022/12/01 10:16:48;;;;;;;43.67;27.70;;;;;;;4.21;63.75;99817.81;5026044;28;20041;-73
2022/12/01 10:19:21;;;;;;;49.28;30.45;;;;;;;4.16;63.87;99820.50;5024693;28;20053;-73
2022/12/01 10:22:04;;;;;;;45.72;29.08;;;;;;;4.10;63.12;99825.88;5024917;28;20312;-73
2022/12/01 10:24:46;;;;;;;45.53;28.67;;;;;;;4.09;63.41;99818.91;5024781;28;20038;-73
2022/12/01 10:27:28;;;;;;;45.83;29.65;;;;;;;4.11;63.49;99811.88;5026299;28;20048;-72
2022/12/01 10:30:03;;;;;;;47.42;29.83;;;;;;;4.10;63.98;99803.16;5025637;28;20087;-73
2022/12/01 10:32:45;;;;;;;42.13;29.95;;;;;;;3.93;63.75;99767.69;5024767;28;20041;-73
2022/12/01 10:35:16;;;;;;;48.08;29.35;;;;;;;4.10;64.10;99803.16;5025856;28;20061;-73
2022/12/01 10:37:45;;;;;;;49.88;29.50;;;;;;;4.12;64.31;99798.72;5025018;28;20042;-73
2022/12/01 10:40:14;;;;;;;51.85;32.42;;;;;;;4.14;64.31;99804.81;5025890;28;20069;-73
2022/12/01 10:42:43;;;;;;;47.63;30.33;;;;;;;4.13;64.14;99803.06;5025446;28;20064;-73
2022/12/01 10:45:16;;;;;;;45.28;27.27;;;;;;;4.15;63.83;99798.66;5025260;28;20052;-73
2022/12/01 10:48:08;;;;;;;46.80;29.48;;;;;;;4.14;62.96;99790.81;5024542;28;20050;-73
2022/12/01 10:50:36;;;;;;;47.58;31.23;;;;;;;4.13;64.26;99789.97;5025431;28;20041;-72
2022/12/01 10:53:03;;;;;;;49.08;32.05;;;;;;;4.15;64.36;99790.78;5025189;28;20100;-72
2022/12/01 10:55:33;;;;;;;48.28;30.20;;;;;;;4.20;64.34;99782.84;5025179;28;20042;-72
2022/12/01 10:58:16;;;;;;;46.30;30.00;;;;;;;4.22;63.65;99786.28;5025175;28;20042;-73
2022/12/01 11:00:44;;;;;;;49.20;28.42;;;;;;;4.21;64.19;99789.81;5025580;28;20046;-73
2022/12/01 11:03:20;;;;;;;41.20;27.05;;;;;;;4.23;63.53;99788.03;5024948;28;20041;-72
2022/12/01 11:05:52;;;;;;;48.28;30.45;;;;;;;4.26;63.72;99787.97;5025515;28;20115;-72
2022/12/01 11:08:24;;;;;;;42.65;28.42;;;;;;;4.29;63.79;99787.03;5025549;28;20046;-73
2022/12/01 11:10:52;;;;;;;45.63;29.13;;;;;;;4.32;64.20;99789.56;5025370;28;20050;-73
2022/12/01 11:13:23;;;;;;;44.13;26.30;;;;;;;4.33;63.48;99781.66;5025712;28;20038;-73
2022/12/01 11:15:52;;;;;;;50.33;29.15;;;;;;;4.35;63.83;99779.00;5025288;28;20057;-72
2022/12/01 11:18:28;;;;;;;42.80;28.38;;;;;;;4.32;63.30;99786.94;5024991;28;20179;-73
2022/12/01 11:21:06;;;;;;;49.42;29.10;;;;;;;4.32;62.91;99784.31;5025086;28;20049;-73
2022/12/01 11:23:36;;;;;;;43.45;26.88;;;;;;;4.33;63.76;99779.03;5024098;28;20213;-73
2022/12/01 11:26:11;;;;;;;43.13;28.55;;;;;;;4.35;63.62;99773.75;5025591;28;20092;-73
2022/12/01 11:28:41;;;;;;;;;;;;;;;4.26;62.72;99777.47;5025538;28;20045;-73
2022/12/01 11:31:10;;;;;;;41.00;27.20;;;;;;;4.28;64.01;99777.44;5024106;28;19921;-73
2022/12/01 11:33:45;;;;;;;46.85;29.05;;;;;;;4.15;63.46;99735.69;5027889;28;20042;-73
2022/12/01 11:36:21;;;;;;;46.72;29.27;;;;;;;4.37;63.43;99769.34;5029026;28;20042;-73
2022/12/01 11:38:48;;;;;;;48.33;28.58;;;;;;;4.40;63.96;99770.13;5029159;28;20064;-73
2022/12/01 11:41:26;;;;;;;43.95;30.10;;;;;;;4.42;62.89;99767.47;5027838;28;20237;-73
2022/12/01 11:43:55;;;;;;;46.05;29.20;;;;;;;4.44;63.65;99771.78;5028826;28;20241;-73